Airfield :
LOGIN :

Register | Disclaimer

   EN    FR    IT 

 










Legend :    VFR   Marginal VFR   IFR   Intensive IFR   Very Intensive IFR
Visi :
Ceiling :
>= 8 km
>= 3000ft
5 to 8 km
1000 to 3000 ft
1500m to 5 km
500 to 1000 ft
800 to 1500m
200 to 500 ft
< 800m
< 200 ft
Symbols :   Thunderstorms  Fog  Heavy snow  Heavy precipitations  Wind > 20 kt
SIGMETs :     Misc.  Thunderstorms  Icing  Turbulence  Mountain Waves  Volcanic Ashes







- Airport Elevation : 14 ft
- IATA code : BRE


EDDW - Bremen Neuenland

CURRENT METAR :
  • 201250Z 35008KT 280V040 9999 FEW028 23/14 Q1005 NOSIG

EXPIRED METARs :
  • 201220Z 34008KT 300V040 9999 FEW028 23/14 Q1005 NOSIG
  • 201150Z 36007KT 310V050 9999 FEW028 22/15 Q1005 NOSIG
  • 201120Z 02007KT 320V080 9999 FEW013 21/15 Q1005 NOSIG
  • 201050Z 35007KT 300V050 9999 FEW013 20/15 Q1005 NOSIG
  • 201020Z 34007KT 260V050 9999 FEW013 19/14 Q1005 NOSIG

TAF TAF EDDW
Valid from the 20 at 12:00 until the 21 at 12:00 UTC


201100Z 2012/2112 02006KT 9999 SCT030
BECMG 2015/2017 32008KT
BECMG 2019/2021 BKN008
TEMPO 2022/2102 4500 BR BKN004
TEMPO 2102/2112 3500 -RADZ BKN004
PROB30
TEMPO 2102/2110 2500 RA
No reported NOTAMs for that airfield.
1 SIGMET reported for the Bremen FIR (EDWW) :
 
Frequent thunderstorms and hail
EDWW SIGMET 1 VALID 201211/201410 EDZF
EDWW BREMEN FIR FRQ TSGR FCST APRX 20NM WID LINE BTN N5137 E01012 - N5123 E01028 TOP FL350 MOV SSW 20KT NC=



MET'MAP, your aeronautical weather chart ! - Copyright ORBIFLY December 2007 - Disclaimer

ORBIFLY MET'MAP TEAM :

Programming & Development : Alexandra Zaïnal
Concept & Development : Baudouin d'Aumeries
Co-Development & Prog : Marc-Olivier Méhu
Technical & hardware support : Manuel Goepfert

Contact : metmap@orbifly.com




SOURCES & CREDITS :

   NOAA